Impacts TAF Board
For situational awareness. Not to be used for flight planning purposes.
IDs:

KIAD - Washington/Dulles In, VA, US

Issued at 1720 UTC 12 Dec 2018
Updated at 1954 UTC 12 Dec 2018
Potential Impact None Slight Moderate High
Time<<13/20Z 13/21Z 13/22Z 13/23Z 14/00Z 14/01Z 14/02Z 14/03Z 14/04Z 14/05Z 14/06Z 14/07Z 14/08Z
Type PRVL PRVL PRVL PRVL
VIS >6 >6 >6 >6
CIG -- -- -- --
Cover SCT SCT SCT SCT
FltCat VFR VFR VFR VFR
WX -- -- -- --
WDir 130 130 130 130
WSpd 4 4 4 4
WGst -- -- -- --
Raw TAF
KIAD 121720Z 1218/1324 VRB03KT P6SM BKN150
  FM130000 15005KT P6SM SCT080
  FM130200 16005KT P6SM BKN150
  FM131700 13004KT P6SM SCT040


METAR Board
Radar Display
Forecast Discussion
For situational awareness. Not to be used for flight planning purposes.